sensor_id;sensor_type;location;lat;lon;timestamp;P1;durP1;ratioP1;P2;durP2;ratioP2
13743;SDS011;6943;52.368;9.966;2024-03-08T00:00:12;22.10;;;14.83;;
13743;SDS011;6943;52.368;9.966;2024-03-08T00:02:43;21.57;;;14.57;;
13743;SDS011;6943;52.368;9.966;2024-03-08T00:05:09;22.80;;;14.10;;
13743;SDS011;6943;52.368;9.966;2024-03-08T00:07:35;25.23;;;14.60;;
13743;SDS011;6943;52.368;9.966;2024-03-08T00:10:04;22.47;;;14.50;;
13743;SDS011;6943;52.368;9.966;2024-03-08T00:12:36;23.13;;;15.53;;
13743;SDS011;6943;52.368;9.966;2024-03-08T00:15:02;22.80;;;15.57;;
13743;SDS011;6943;52.368;9.966;2024-03-08T00:17:27;24.87;;;16.77;;
13743;SDS011;6943;52.368;9.966;2024-03-08T00:19:53;22.63;;;15.27;;
13743;SDS011;6943;52.368;9.966;2024-03-08T00:22:19;25.37;;;14.80;;
13743;SDS011;6943;52.368;9.966;2024-03-08T00:24:44;23.27;;;15.00;;
13743;SDS011;6943;52.368;9.966;2024-03-08T00:27:10;20.37;;;14.63;;
13743;SDS011;6943;52.368;9.966;2024-03-08T00:29:36;22.23;;;13.80;;
13743;SDS011;6943;52.368;9.966;2024-03-08T00:32:03;22.53;;;15.33;;
13743;SDS011;6943;52.368;9.966;2024-03-08T00:34:29;21.13;;;15.10;;
13743;SDS011;6943;52.368;9.966;2024-03-08T00:36:55;26.47;;;16.70;;
13743;SDS011;6943;52.368;9.966;2024-03-08T00:39:20;24.90;;;14.93;;
13743;SDS011;6943;52.368;9.966;2024-03-08T00:41:46;24.13;;;15.30;;
13743;SDS011;6943;52.368;9.966;2024-03-08T00:44:12;22.07;;;14.17;;
13743;SDS011;6943;52.368;9.966;2024-03-08T00:46:37;24.83;;;15.77;;
13743;SDS011;6943;52.368;9.966;2024-03-08T00:49:03;24.13;;;14.33;;
13743;SDS011;6943;52.368;9.966;2024-03-08T00:51:28;22.23;;;14.13;;
13743;SDS011;6943;52.368;9.966;2024-03-08T00:53:54;24.03;;;14.37;;
13743;SDS011;6943;52.368;9.966;2024-03-08T00:56:19;23.97;;;15.83;;
13743;SDS011;6943;52.368;9.966;2024-03-08T00:58:45;26.67;;;15.27;;
13743;SDS011;6943;52.368;9.966;2024-03-08T01:01:12;24.27;;;15.63;;
13743;SDS011;6943;52.368;9.966;2024-03-08T01:03:41;23.87;;;15.10;;
13743;SDS011;6943;52.368;9.966;2024-03-08T01:06:08;29.33;;;15.73;;
13743;SDS011;6943;52.368;9.966;2024-03-08T01:08:33;29.43;;;15.53;;
13743;SDS011;6943;52.368;9.966;2024-03-08T01:10:59;23.00;;;14.37;;
13743;SDS011;6943;52.368;9.966;2024-03-08T01:13:24;24.53;;;14.33;;
13743;SDS011;6943;52.368;9.966;2024-03-08T01:15:50;23.37;;;15.47;;
13743;SDS011;6943;52.368;9.966;2024-03-08T01:18:15;24.00;;;14.97;;
13743;SDS011;6943;52.368;9.966;2024-03-08T01:20:40;24.17;;;14.97;;
13743;SDS011;6943;52.368;9.966;2024-03-08T01:23:06;25.97;;;16.57;;
13743;SDS011;6943;52.368;9.966;2024-03-08T01:25:32;28.07;;;16.67;;
13743;SDS011;6943;52.368;9.966;2024-03-08T01:27:58;23.57;;;15.07;;
13743;SDS011;6943;52.368;9.966;2024-03-08T01:30:23;24.87;;;14.53;;
13743;SDS011;6943;52.368;9.966;2024-03-08T01:32:49;24.33;;;15.73;;
13743;SDS011;6943;52.368;9.966;2024-03-08T01:35:14;25.40;;;16.20;;
13743;SDS011;6943;52.368;9.966;2024-03-08T01:37:40;22.47;;;14.43;;
13743;SDS011;6943;52.368;9.966;2024-03-08T01:40:06;23.17;;;13.90;;
13743;SDS011;6943;52.368;9.966;2024-03-08T01:42:33;24.70;;;15.10;;
13743;SDS011;6943;52.368;9.966;2024-03-08T01:45:02;21.90;;;13.67;;
13743;SDS011;6943;52.368;9.966;2024-03-08T01:47:31;24.33;;;15.27;;
13743;SDS011;6943;52.368;9.966;2024-03-08T01:49:58;25.53;;;14.87;;
13743;SDS011;6943;52.368;9.966;2024-03-08T01:52:26;25.23;;;16.03;;
13743;SDS011;6943;52.368;9.966;2024-03-08T01:54:53;26.50;;;15.47;;
13743;SDS011;6943;52.368;9.966;2024-03-08T01:57:19;25.87;;;15.90;;
13743;SDS011;6943;52.368;9.966;2024-03-08T01:59:45;26.33;;;15.87;;
13743;SDS011;6943;52.368;9.966;2024-03-08T02:02:11;28.53;;;15.40;;
13743;SDS011;6943;52.368;9.966;2024-03-08T02:04:41;23.87;;;14.20;;
13743;SDS011;6943;52.368;9.966;2024-03-08T02:07:06;24.23;;;14.80;;
13743;SDS011;6943;52.368;9.966;2024-03-08T02:09:32;22.03;;;15.20;;
13743;SDS011;6943;52.368;9.966;2024-03-08T02:11:57;24.13;;;15.70;;
13743;SDS011;6943;52.368;9.966;2024-03-08T02:14:23;24.70;;;16.33;;
13743;SDS011;6943;52.368;9.966;2024-03-08T02:16:48;25.07;;;15.93;;
13743;SDS011;6943;52.368;9.966;2024-03-08T02:19:16;26.73;;;16.17;;
13743;SDS011;6943;52.368;9.966;2024-03-08T02:21:41;22.37;;;14.73;;
13743;SDS011;6943;52.368;9.966;2024-03-08T02:24:07;30.30;;;16.03;;
13743;SDS011;6943;52.368;9.966;2024-03-08T02:26:32;27.70;;;15.67;;
13743;SDS011;6943;52.368;9.966;2024-03-08T02:28:58;25.10;;;15.23;;
13743;SDS011;6943;52.368;9.966;2024-03-08T02:31:23;27.77;;;15.53;;
13743;SDS011;6943;52.368;9.966;2024-03-08T02:33:49;25.80;;;16.20;;
13743;SDS011;6943;52.368;9.966;2024-03-08T02:36:14;32.23;;;16.60;;
13743;SDS011;6943;52.368;9.966;2024-03-08T02:38:41;27.40;;;15.63;;
13743;SDS011;6943;52.368;9.966;2024-03-08T02:41:06;26.10;;;16.57;;
13743;SDS011;6943;52.368;9.966;2024-03-08T02:43:32;23.43;;;15.50;;
13743;SDS011;6943;52.368;9.966;2024-03-08T02:45:58;25.57;;;15.47;;
13743;SDS011;6943;52.368;9.966;2024-03-08T02:48:24;24.77;;;15.27;;
13743;SDS011;6943;52.368;9.966;2024-03-08T02:50:50;26.37;;;15.87;;
13743;SDS011;6943;52.368;9.966;2024-03-08T02:53:16;26.23;;;15.27;;
13743;SDS011;6943;52.368;9.966;2024-03-08T02:55:43;26.77;;;15.77;;
13743;SDS011;6943;52.368;9.966;2024-03-08T02:58:09;24.33;;;14.77;;
13743;SDS011;6943;52.368;9.966;2024-03-08T03:00:35;25.80;;;16.07;;
13743;SDS011;6943;52.368;9.966;2024-03-08T03:03:02;24.70;;;16.30;;
13743;SDS011;6943;52.368;9.966;2024-03-08T03:05:28;24.43;;;14.97;;
13743;SDS011;6943;52.368;9.966;2024-03-08T03:07:57;25.03;;;14.93;;
13743;SDS011;6943;52.368;9.966;2024-03-08T03:10:23;22.73;;;15.07;;
13743;SDS011;6943;52.368;9.966;2024-03-08T03:12:48;26.50;;;14.73;;
13743;SDS011;6943;52.368;9.966;2024-03-08T03:15:14;23.33;;;15.10;;
13743;SDS011;6943;52.368;9.966;2024-03-08T03:17:44;24.40;;;14.53;;
13743;SDS011;6943;52.368;9.966;2024-03-08T03:20:15;23.83;;;15.37;;
13743;SDS011;6943;52.368;9.966;2024-03-08T03:22:47;27.47;;;15.70;;
13743;SDS011;6943;52.368;9.966;2024-03-08T03:25:20;24.27;;;14.73;;
13743;SDS011;6943;52.368;9.966;2024-03-08T03:27:54;25.70;;;15.03;;
13743;SDS011;6943;52.368;9.966;2024-03-08T03:30:21;25.80;;;15.97;;
13743;SDS011;6943;52.368;9.966;2024-03-08T03:32:50;21.37;;;13.20;;
13743;SDS011;6943;52.368;9.966;2024-03-08T03:35:19;25.67;;;15.43;;
13743;SDS011;6943;52.368;9.966;2024-03-08T03:37:49;26.40;;;16.07;;
13743;SDS011;6943;52.368;9.966;2024-03-08T03:40:31;24.77;;;15.20;;
13743;SDS011;6943;52.368;9.966;2024-03-08T03:43:03;25.30;;;14.97;;
13743;SDS011;6943;52.368;9.966;2024-03-08T03:45:29;27.27;;;16.23;;
13743;SDS011;6943;52.368;9.966;2024-03-08T03:47:55;25.87;;;15.83;;
13743;SDS011;6943;52.368;9.966;2024-03-08T03:50:21;24.40;;;15.03;;
13743;SDS011;6943;52.368;9.966;2024-03-08T03:52:49;24.53;;;16.13;;
13743;SDS011;6943;52.368;9.966;2024-03-08T03:55:15;26.27;;;15.60;;
13743;SDS011;6943;52.368;9.966;2024-03-08T03:57:40;26.47;;;16.23;;
13743;SDS011;6943;52.368;9.966;2024-03-08T04:00:06;25.23;;;15.73;;
13743;SDS011;6943;52.368;9.966;2024-03-08T04:02:35;27.93;;;15.33;;
13743;SDS011;6943;52.368;9.966;2024-03-08T04:05:02;33.13;;;16.77;;
13743;SDS011;6943;52.368;9.966;2024-03-08T04:07:28;26.67;;;16.03;;
13743;SDS011;6943;52.368;9.966;2024-03-08T04:09:54;27.83;;;16.37;;
13743;SDS011;6943;52.368;9.966;2024-03-08T04:12:19;23.33;;;15.57;;
13743;SDS011;6943;52.368;9.966;2024-03-08T04:14:45;29.03;;;16.20;;
13743;SDS011;6943;52.368;9.966;2024-03-08T04:17:10;25.47;;;15.83;;
13743;SDS011;6943;52.368;9.966;2024-03-08T04:19:36;29.10;;;17.73;;
13743;SDS011;6943;52.368;9.966;2024-03-08T04:22:03;26.93;;;17.17;;
13743;SDS011;6943;52.368;9.966;2024-03-08T04:24:28;26.70;;;15.37;;
13743;SDS011;6943;52.368;9.966;2024-03-08T04:26:55;27.33;;;17.53;;
13743;SDS011;6943;52.368;9.966;2024-03-08T04:29:20;27.37;;;16.57;;
13743;SDS011;6943;52.368;9.966;2024-03-08T04:31:46;27.77;;;15.83;;
13743;SDS011;6943;52.368;9.966;2024-03-08T04:34:12;31.30;;;17.87;;
13743;SDS011;6943;52.368;9.966;2024-03-08T04:36:38;25.40;;;15.83;;
13743;SDS011;6943;52.368;9.966;2024-03-08T04:39:03;30.53;;;17.33;;
13743;SDS011;6943;52.368;9.966;2024-03-08T04:41:28;28.37;;;17.23;;
13743;SDS011;6943;52.368;9.966;2024-03-08T04:43:55;24.90;;;14.47;;
13743;SDS011;6943;52.368;9.966;2024-03-08T04:46:22;26.30;;;16.27;;
13743;SDS011;6943;52.368;9.966;2024-03-08T04:48:48;29.33;;;17.83;;
13743;SDS011;6943;52.368;9.966;2024-03-08T04:51:13;22.87;;;14.40;;
13743;SDS011;6943;52.368;9.966;2024-03-08T04:53:40;29.83;;;15.73;;
13743;SDS011;6943;52.368;9.966;2024-03-08T04:56:06;30.53;;;17.90;;
13743;SDS011;6943;52.368;9.966;2024-03-08T04:58:32;24.90;;;14.97;;
13743;SDS011;6943;52.368;9.966;2024-03-08T05:01:00;26.50;;;15.07;;
13743;SDS011;6943;52.368;9.966;2024-03-08T05:03:26;24.60;;;15.10;;
13743;SDS011;6943;52.368;9.966;2024-03-08T05:05:52;26.57;;;15.63;;
13743;SDS011;6943;52.368;9.966;2024-03-08T05:08:18;25.10;;;15.00;;
13743;SDS011;6943;52.368;9.966;2024-03-08T05:10:43;31.83;;;17.30;;
13743;SDS011;6943;52.368;9.966;2024-03-08T05:13:09;27.47;;;15.90;;
13743;SDS011;6943;52.368;9.966;2024-03-08T05:15:35;29.17;;;17.43;;
13743;SDS011;6943;52.368;9.966;2024-03-08T05:18:01;29.53;;;17.30;;
13743;SDS011;6943;52.368;9.966;2024-03-08T05:20:27;29.27;;;17.37;;
13743;SDS011;6943;52.368;9.966;2024-03-08T05:22:52;27.87;;;17.17;;
13743;SDS011;6943;52.368;9.966;2024-03-08T05:25:18;25.13;;;16.67;;
13743;SDS011;6943;52.368;9.966;2024-03-08T05:27:43;29.13;;;18.13;;
13743;SDS011;6943;52.368;9.966;2024-03-08T05:30:09;30.20;;;17.80;;
13743;SDS011;6943;52.368;9.966;2024-03-08T05:32:40;34.83;;;18.23;;
13743;SDS011;6943;52.368;9.966;2024-03-08T05:35:11;31.43;;;20.07;;
13743;SDS011;6943;52.368;9.966;2024-03-08T05:37:37;33.50;;;18.33;;
13743;SDS011;6943;52.368;9.966;2024-03-08T05:40:03;25.60;;;16.73;;
13743;SDS011;6943;52.368;9.966;2024-03-08T05:42:33;30.73;;;19.13;;
13743;SDS011;6943;52.368;9.966;2024-03-08T05:45:00;31.03;;;18.13;;
13743;SDS011;6943;52.368;9.966;2024-03-08T05:47:25;32.60;;;18.27;;
13743;SDS011;6943;52.368;9.966;2024-03-08T05:49:51;30.30;;;19.77;;
13743;SDS011;6943;52.368;9.966;2024-03-08T05:52:18;28.83;;;16.60;;
13743;SDS011;6943;52.368;9.966;2024-03-08T05:54:44;30.90;;;18.67;;
13743;SDS011;6943;52.368;9.966;2024-03-08T05:57:10;33.27;;;18.50;;
13743;SDS011;6943;52.368;9.966;2024-03-08T05:59:36;29.97;;;17.00;;
13743;SDS011;6943;52.368;9.966;2024-03-08T06:02:02;27.53;;;16.67;;
13743;SDS011;6943;52.368;9.966;2024-03-08T06:04:28;30.97;;;19.37;;
13743;SDS011;6943;52.368;9.966;2024-03-08T06:06:54;28.13;;;17.90;;
13743;SDS011;6943;52.368;9.966;2024-03-08T06:09:21;33.63;;;19.50;;
13743;SDS011;6943;52.368;9.966;2024-03-08T06:11:48;33.33;;;17.87;;
13743;SDS011;6943;52.368;9.966;2024-03-08T06:14:14;31.00;;;18.53;;
13743;SDS011;6943;52.368;9.966;2024-03-08T06:16:43;28.67;;;18.03;;
13743;SDS011;6943;52.368;9.966;2024-03-08T06:19:12;33.83;;;19.47;;
13743;SDS011;6943;52.368;9.966;2024-03-08T06:21:39;34.07;;;19.63;;
13743;SDS011;6943;52.368;9.966;2024-03-08T06:24:06;27.43;;;17.43;;
13743;SDS011;6943;52.368;9.966;2024-03-08T06:26:32;30.10;;;18.57;;
13743;SDS011;6943;52.368;9.966;2024-03-08T06:28:58;33.37;;;19.97;;
13743;SDS011;6943;52.368;9.966;2024-03-08T06:31:24;30.10;;;18.50;;
13743;SDS011;6943;52.368;9.966;2024-03-08T06:33:49;31.63;;;20.47;;
13743;SDS011;6943;52.368;9.966;2024-03-08T06:36:18;29.23;;;19.03;;
13743;SDS011;6943;52.368;9.966;2024-03-08T06:38:44;31.93;;;18.67;;
13743;SDS011;6943;52.368;9.966;2024-03-08T06:41:13;28.50;;;19.20;;
13743;SDS011;6943;52.368;9.966;2024-03-08T06:43:43;29.40;;;17.37;;
13743;SDS011;6943;52.368;9.966;2024-03-08T06:46:09;27.07;;;18.93;;
13743;SDS011;6943;52.368;9.966;2024-03-08T06:48:37;28.63;;;18.23;;
13743;SDS011;6943;52.368;9.966;2024-03-08T06:51:03;34.73;;;20.23;;
13743;SDS011;6943;52.368;9.966;2024-03-08T06:53:30;29.07;;;18.80;;
13743;SDS011;6943;52.368;9.966;2024-03-08T06:55:56;27.00;;;18.80;;
13743;SDS011;6943;52.368;9.966;2024-03-08T06:58:23;29.00;;;18.03;;
13743;SDS011;6943;52.368;9.966;2024-03-08T07:00:49;32.93;;;19.90;;
13743;SDS011;6943;52.368;9.966;2024-03-08T07:03:18;31.90;;;20.07;;
13743;SDS011;6943;52.368;9.966;2024-03-08T07:05:45;27.80;;;17.23;;
13743;SDS011;6943;52.368;9.966;2024-03-08T07:08:11;26.17;;;19.13;;
13743;SDS011;6943;52.368;9.966;2024-03-08T07:10:39;24.17;;;16.60;;
13743;SDS011;6943;52.368;9.966;2024-03-08T07:13:06;24.33;;;15.80;;
13743;SDS011;6943;52.368;9.966;2024-03-08T07:15:32;29.67;;;18.40;;
13743;SDS011;6943;52.368;9.966;2024-03-08T07:17:58;27.37;;;18.17;;
13743;SDS011;6943;52.368;9.966;2024-03-08T07:20:25;28.70;;;18.60;;
13743;SDS011;6943;52.368;9.966;2024-03-08T07:22:50;30.50;;;19.27;;
13743;SDS011;6943;52.368;9.966;2024-03-08T07:25:16;29.40;;;19.13;;
13743;SDS011;6943;52.368;9.966;2024-03-08T07:27:52;30.70;;;18.00;;
13743;SDS011;6943;52.368;9.966;2024-03-08T07:30:19;28.43;;;18.33;;
13743;SDS011;6943;52.368;9.966;2024-03-08T07:33:05;26.70;;;17.57;;
13743;SDS011;6943;52.368;9.966;2024-03-08T07:35:39;28.67;;;19.40;;
13743;SDS011;6943;52.368;9.966;2024-03-08T07:38:06;27.93;;;16.30;;
13743;SDS011;6943;52.368;9.966;2024-03-08T07:40:36;27.33;;;18.63;;
13743;SDS011;6943;52.368;9.966;2024-03-08T07:43:11;23.70;;;16.53;;
13743;SDS011;6943;52.368;9.966;2024-03-08T07:45:37;27.20;;;19.10;;
13743;SDS011;6943;52.368;9.966;2024-03-08T07:48:03;26.33;;;18.40;;
13743;SDS011;6943;52.368;9.966;2024-03-08T07:50:34;25.60;;;18.30;;
13743;SDS011;6943;52.368;9.966;2024-03-08T07:53:02;29.40;;;19.73;;
13743;SDS011;6943;52.368;9.966;2024-03-08T07:55:28;26.57;;;18.57;;
13743;SDS011;6943;52.368;9.966;2024-03-08T07:57:56;27.73;;;19.20;;
13743;SDS011;6943;52.368;9.966;2024-03-08T08:00:21;25.43;;;19.80;;
13743;SDS011;6943;52.368;9.966;2024-03-08T08:02:46;25.87;;;20.30;;
13743;SDS011;6943;52.368;9.966;2024-03-08T08:05:14;26.27;;;18.73;;
13743;SDS011;6943;52.368;9.966;2024-03-08T08:07:40;25.03;;;19.17;;
13743;SDS011;6943;52.368;9.966;2024-03-08T08:10:09;24.83;;;19.13;;
13743;SDS011;6943;52.368;9.966;2024-03-08T08:12:40;24.50;;;18.93;;
13743;SDS011;6943;52.368;9.966;2024-03-08T08:15:06;23.43;;;18.60;;
13743;SDS011;6943;52.368;9.966;2024-03-08T08:17:32;23.63;;;18.27;;
13743;SDS011;6943;52.368;9.966;2024-03-08T08:19:59;28.17;;;19.27;;
13743;SDS011;6943;52.368;9.966;2024-03-08T08:22:25;24.60;;;19.63;;
13743;SDS011;6943;52.368;9.966;2024-03-08T08:24:50;30.13;;;19.97;;
13743;SDS011;6943;52.368;9.966;2024-03-08T08:27:17;25.17;;;20.47;;
13743;SDS011;6943;52.368;9.966;2024-03-08T08:29:42;27.90;;;21.67;;
13743;SDS011;6943;52.368;9.966;2024-03-08T08:32:08;23.67;;;18.67;;
13743;SDS011;6943;52.368;9.966;2024-03-08T08:34:34;25.40;;;19.93;;
13743;SDS011;6943;52.368;9.966;2024-03-08T08:36:59;23.90;;;18.27;;
13743;SDS011;6943;52.368;9.966;2024-03-08T08:39:25;28.07;;;19.93;;
13743;SDS011;6943;52.368;9.966;2024-03-08T08:41:51;26.17;;;20.37;;
13743;SDS011;6943;52.368;9.966;2024-03-08T08:44:17;27.33;;;21.23;;
13743;SDS011;6943;52.368;9.966;2024-03-08T08:46:43;26.37;;;20.67;;
13743;SDS011;6943;52.368;9.966;2024-03-08T08:49:08;25.70;;;20.27;;
13743;SDS011;6943;52.368;9.966;2024-03-08T08:51:39;23.77;;;19.10;;
13743;SDS011;6943;52.368;9.966;2024-03-08T08:54:05;26.70;;;20.57;;
13743;SDS011;6943;52.368;9.966;2024-03-08T08:56:32;26.60;;;20.00;;
13743;SDS011;6943;52.368;9.966;2024-03-08T08:58:57;24.13;;;18.53;;
13743;SDS011;6943;52.368;9.966;2024-03-08T09:01:24;25.77;;;20.73;;
13743;SDS011;6943;52.368;9.966;2024-03-08T09:03:49;23.07;;;19.17;;
13743;SDS011;6943;52.368;9.966;2024-03-08T09:06:15;24.97;;;20.30;;
13743;SDS011;6943;52.368;9.966;2024-03-08T09:08:42;26.03;;;20.40;;
13743;SDS011;6943;52.368;9.966;2024-03-08T09:11:09;26.30;;;21.20;;
13743;SDS011;6943;52.368;9.966;2024-03-08T09:13:35;26.07;;;19.27;;
13743;SDS011;6943;52.368;9.966;2024-03-08T09:16:01;22.20;;;17.20;;
13743;SDS011;6943;52.368;9.966;2024-03-08T09:18:27;25.83;;;18.60;;
13743;SDS011;6943;52.368;9.966;2024-03-08T09:20:54;24.77;;;17.97;;
13743;SDS011;6943;52.368;9.966;2024-03-08T09:23:19;23.07;;;18.57;;
13743;SDS011;6943;52.368;9.966;2024-03-08T09:25:45;24.07;;;18.50;;
13743;SDS011;6943;52.368;9.966;2024-03-08T09:28:11;25.57;;;20.23;;
13743;SDS011;6943;52.368;9.966;2024-03-08T09:30:37;25.70;;;19.67;;
13743;SDS011;6943;52.368;9.966;2024-03-08T09:33:05;24.80;;;19.03;;
13743;SDS011;6943;52.368;9.966;2024-03-08T09:35:31;25.83;;;20.23;;
13743;SDS011;6943;52.368;9.966;2024-03-08T09:37:57;25.50;;;19.27;;
13743;SDS011;6943;52.368;9.966;2024-03-08T09:40:23;24.90;;;20.23;;
13743;SDS011;6943;52.368;9.966;2024-03-08T09:42:50;25.30;;;19.70;;
13743;SDS011;6943;52.368;9.966;2024-03-08T09:45:17;27.93;;;19.80;;
13743;SDS011;6943;52.368;9.966;2024-03-08T09:47:47;26.43;;;20.37;;
13743;SDS011;6943;52.368;9.966;2024-03-08T09:50:13;29.57;;;21.07;;
13743;SDS011;6943;52.368;9.966;2024-03-08T09:52:39;27.57;;;20.37;;
13743;SDS011;6943;52.368;9.966;2024-03-08T09:55:05;29.33;;;19.53;;
13743;SDS011;6943;52.368;9.966;2024-03-08T09:57:32;27.07;;;19.33;;
13743;SDS011;6943;52.368;9.966;2024-03-08T09:59:58;30.53;;;20.83;;
13743;SDS011;6943;52.368;9.966;2024-03-08T10:02:24;30.63;;;20.13;;
13743;SDS011;6943;52.368;9.966;2024-03-08T10:04:49;25.47;;;18.83;;
13743;SDS011;6943;52.368;9.966;2024-03-08T10:07:18;26.37;;;18.67;;
13743;SDS011;6943;52.368;9.966;2024-03-08T10:09:43;25.17;;;19.00;;
13743;SDS011;6943;52.368;9.966;2024-03-08T10:12:15;29.50;;;19.80;;
13743;SDS011;6943;52.368;9.966;2024-03-08T10:14:41;24.47;;;18.83;;
13743;SDS011;6943;52.368;9.966;2024-03-08T10:17:07;25.70;;;19.70;;
13743;SDS011;6943;52.368;9.966;2024-03-08T10:19:33;30.07;;;20.57;;
13743;SDS011;6943;52.368;9.966;2024-03-08T10:21:59;23.80;;;18.17;;
13743;SDS011;6943;52.368;9.966;2024-03-08T10:24:25;23.87;;;17.80;;
13743;SDS011;6943;52.368;9.966;2024-03-08T10:27:03;28.47;;;20.37;;
13743;SDS011;6943;52.368;9.966;2024-03-08T10:29:30;26.87;;;20.73;;
13743;SDS011;6943;52.368;9.966;2024-03-08T10:31:56;25.93;;;20.10;;
13743;SDS011;6943;52.368;9.966;2024-03-08T10:34:22;29.27;;;20.57;;
13743;SDS011;6943;52.368;9.966;2024-03-08T10:36:49;25.93;;;20.40;;
13743;SDS011;6943;52.368;9.966;2024-03-08T10:41:46;23.03;;;17.50;;
13743;SDS011;6943;52.368;9.966;2024-03-08T10:49:39;26.73;;;20.23;;
13743;SDS011;6943;52.368;9.966;2024-03-08T10:52:07;23.47;;;17.57;;
13743;SDS011;6943;52.368;9.966;2024-03-08T10:54:36;28.37;;;19.57;;
13743;SDS011;6943;52.368;9.966;2024-03-08T10:57:05;26.87;;;18.90;;
13743;SDS011;6943;52.368;9.966;2024-03-08T10:59:33;25.17;;;17.90;;
13743;SDS011;6943;52.368;9.966;2024-03-08T11:02:00;30.00;;;20.20;;
13743;SDS011;6943;52.368;9.966;2024-03-08T11:04:26;28.10;;;20.27;;
13743;SDS011;6943;52.368;9.966;2024-03-08T11:06:54;26.20;;;20.27;;
13743;SDS011;6943;52.368;9.966;2024-03-08T11:09:28;34.83;;;20.23;;
13743;SDS011;6943;52.368;9.966;2024-03-08T11:14:44;24.90;;;19.20;;
13743;SDS011;6943;52.368;9.966;2024-03-08T11:17:12;29.73;;;21.57;;
13743;SDS011;6943;52.368;9.966;2024-03-08T11:19:44;30.47;;;22.27;;
13743;SDS011;6943;52.368;9.966;2024-03-08T11:22:13;28.03;;;21.13;;
13743;SDS011;6943;52.368;9.966;2024-03-08T11:24:47;31.57;;;22.43;;
13743;SDS011;6943;52.368;9.966;2024-03-08T11:27:13;27.57;;;19.83;;
13743;SDS011;6943;52.368;9.966;2024-03-08T11:29:39;25.50;;;19.53;;
13743;SDS011;6943;52.368;9.966;2024-03-08T11:32:12;23.43;;;17.57;;
13743;SDS011;6943;52.368;9.966;2024-03-08T11:34:42;25.37;;;19.63;;
13743;SDS011;6943;52.368;9.966;2024-03-08T11:37:13;26.03;;;20.20;;
13743;SDS011;6943;52.368;9.966;2024-03-08T11:39:41;27.93;;;19.27;;
13743;SDS011;6943;52.368;9.966;2024-03-08T11:42:12;30.40;;;21.43;;
13743;SDS011;6943;52.368;9.966;2024-03-08T11:44:38;26.77;;;18.87;;
13743;SDS011;6943;52.368;9.966;2024-03-08T11:47:08;27.07;;;18.67;;
13743;SDS011;6943;52.368;9.966;2024-03-08T11:49:35;27.33;;;20.30;;
13743;SDS011;6943;52.368;9.966;2024-03-08T11:52:01;26.47;;;19.47;;
13743;SDS011;6943;52.368;9.966;2024-03-08T11:54:27;26.30;;;19.77;;
13743;SDS011;6943;52.368;9.966;2024-03-08T11:56:54;26.33;;;18.93;;
13743;SDS011;6943;52.368;9.966;2024-03-08T11:59:25;29.60;;;21.67;;
13743;SDS011;6943;52.368;9.966;2024-03-08T12:01:59;28.37;;;19.77;;
13743;SDS011;6943;52.368;9.966;2024-03-08T12:04:31;28.63;;;20.60;;
13743;SDS011;6943;52.368;9.966;2024-03-08T12:07:01;27.00;;;20.10;;
13743;SDS011;6943;52.368;9.966;2024-03-08T12:09:27;30.07;;;20.93;;
13743;SDS011;6943;52.368;9.966;2024-03-08T12:11:53;26.93;;;19.70;;
13743;SDS011;6943;52.368;9.966;2024-03-08T12:14:19;25.33;;;19.40;;
13743;SDS011;6943;52.368;9.966;2024-03-08T12:16:45;29.20;;;20.60;;
13743;SDS011;6943;52.368;9.966;2024-03-08T12:19:11;26.57;;;19.13;;
13743;SDS011;6943;52.368;9.966;2024-03-08T12:21:37;27.30;;;20.07;;
13743;SDS011;6943;52.368;9.966;2024-03-08T12:24:07;28.23;;;20.77;;
13743;SDS011;6943;52.368;9.966;2024-03-08T12:26:35;30.40;;;21.07;;
13743;SDS011;6943;52.368;9.966;2024-03-08T12:29:14;28.33;;;20.47;;
13743;SDS011;6943;52.368;9.966;2024-03-08T12:31:41;28.60;;;21.13;;
13743;SDS011;6943;52.368;9.966;2024-03-08T12:34:08;32.63;;;21.87;;
13743;SDS011;6943;52.368;9.966;2024-03-08T12:36:34;26.30;;;20.17;;
13743;SDS011;6943;52.368;9.966;2024-03-08T12:39:01;27.50;;;20.97;;
13743;SDS011;6943;52.368;9.966;2024-03-08T12:41:28;25.77;;;20.47;;
13743;SDS011;6943;52.368;9.966;2024-03-08T12:43:54;25.93;;;17.40;;
13743;SDS011;6943;52.368;9.966;2024-03-08T12:46:21;28.10;;;19.47;;
13743;SDS011;6943;52.368;9.966;2024-03-08T12:48:47;24.77;;;18.37;;
13743;SDS011;6943;52.368;9.966;2024-03-08T12:51:16;25.47;;;18.63;;
13743;SDS011;6943;52.368;9.966;2024-03-08T12:53:43;21.30;;;16.00;;
13743;SDS011;6943;52.368;9.966;2024-03-08T12:56:10;24.13;;;19.00;;
13743;SDS011;6943;52.368;9.966;2024-03-08T12:58:36;23.23;;;17.03;;
13743;SDS011;6943;52.368;9.966;2024-03-08T13:01:03;27.17;;;18.77;;
13743;SDS011;6943;52.368;9.966;2024-03-08T13:03:30;24.43;;;18.27;;
13743;SDS011;6943;52.368;9.966;2024-03-08T13:05:56;24.37;;;16.53;;
13743;SDS011;6943;52.368;9.966;2024-03-08T13:08:22;20.33;;;16.17;;
13743;SDS011;6943;52.368;9.966;2024-03-08T13:10:51;21.33;;;16.57;;
13743;SDS011;6943;52.368;9.966;2024-03-08T13:13:17;23.13;;;15.43;;
13743;SDS011;6943;52.368;9.966;2024-03-08T13:15:44;22.03;;;16.40;;
13743;SDS011;6943;52.368;9.966;2024-03-08T13:18:10;23.73;;;17.07;;
13743;SDS011;6943;52.368;9.966;2024-03-08T13:20:36;21.73;;;17.80;;
13743;SDS011;6943;52.368;9.966;2024-03-08T13:23:04;23.43;;;17.47;;
13743;SDS011;6943;52.368;9.966;2024-03-08T13:25:33;20.17;;;15.13;;
13743;SDS011;6943;52.368;9.966;2024-03-08T13:27:58;22.57;;;17.40;;
13743;SDS011;6943;52.368;9.966;2024-03-08T13:30:25;22.57;;;16.93;;
13743;SDS011;6943;52.368;9.966;2024-03-08T13:32:52;22.27;;;17.87;;
13743;SDS011;6943;52.368;9.966;2024-03-08T13:35:18;20.40;;;16.33;;
13743;SDS011;6943;52.368;9.966;2024-03-08T13:37:49;25.17;;;17.73;;
13743;SDS011;6943;52.368;9.966;2024-03-08T13:40:16;19.90;;;15.07;;
13743;SDS011;6943;52.368;9.966;2024-03-08T13:42:44;23.23;;;16.53;;
13743;SDS011;6943;52.368;9.966;2024-03-08T13:45:16;20.17;;;15.87;;
13743;SDS011;6943;52.368;9.966;2024-03-08T13:47:49;17.13;;;14.30;;
13743;SDS011;6943;52.368;9.966;2024-03-08T13:50:16;23.60;;;17.63;;
13743;SDS011;6943;52.368;9.966;2024-03-08T13:52:46;18.10;;;13.87;;
13743;SDS011;6943;52.368;9.966;2024-03-08T13:55:12;17.60;;;15.27;;
13743;SDS011;6943;52.368;9.966;2024-03-08T13:57:39;21.73;;;14.63;;
13743;SDS011;6943;52.368;9.966;2024-03-08T14:00:05;19.67;;;14.77;;
13743;SDS011;6943;52.368;9.966;2024-03-08T14:02:32;19.53;;;14.00;;
13743;SDS011;6943;52.368;9.966;2024-03-08T14:04:58;20.50;;;14.60;;
13743;SDS011;6943;52.368;9.966;2024-03-08T14:07:27;17.90;;;15.10;;
13743;SDS011;6943;52.368;9.966;2024-03-08T14:09:54;20.90;;;15.37;;
13743;SDS011;6943;52.368;9.966;2024-03-08T14:12:20;20.60;;;14.90;;
13743;SDS011;6943;52.368;9.966;2024-03-08T14:14:45;19.92;;;15.90;;
13743;SDS011;6943;52.368;9.966;2024-03-08T14:17:11;24.23;;;15.63;;
13743;SDS011;6943;52.368;9.966;2024-03-08T14:19:42;17.87;;;13.70;;
13743;SDS011;6943;52.368;9.966;2024-03-08T14:22:08;20.67;;;15.93;;
13743;SDS011;6943;52.368;9.966;2024-03-08T14:24:37;21.40;;;15.37;;
13743;SDS011;6943;52.368;9.966;2024-03-08T14:27:04;20.83;;;15.17;;
13743;SDS011;6943;52.368;9.966;2024-03-08T14:29:33;18.83;;;14.40;;
13743;SDS011;6943;52.368;9.966;2024-03-08T14:31:59;17.87;;;15.23;;
13743;SDS011;6943;52.368;9.966;2024-03-08T14:34:25;22.57;;;16.40;;
13743;SDS011;6943;52.368;9.966;2024-03-08T14:36:53;18.07;;;14.37;;
13743;SDS011;6943;52.368;9.966;2024-03-08T14:39:19;20.40;;;15.80;;
13743;SDS011;6943;52.368;9.966;2024-03-08T14:41:51;22.37;;;16.40;;